Time;durP1;ratioP1;P1;durP2;ratioP2;P2;SDS_P1;SDS_P2;PMS_P1;PMS_P2;Temp;Humidity;BMP_temperature;BMP_pressure;BME280_temperature;BME280_humidity;BME280_pressure;Samples;Min_cycle;Max_cycle;Signal;HPM_P1;HPM_P2
2022/08/06 00:01:49;;;;;;;5.18;1.52;;;;;;;23.19;60.84;100581.75;4881757;29;20481;-83
2022/08/06 00:04:15;;;;;;;2.00;1.10;;;;;;;23.10;60.52;100577.88;4899643;29;20048;-82
2022/08/06 00:06:41;;;;;;;3.50;1.33;;;;;;;23.18;60.46;100594.44;4898901;29;20036;-82
2022/08/06 00:09:06;;;;;;;2.15;1.20;;;;;;;23.11;61.16;100576.88;4898250;29;20053;-82
2022/08/06 00:11:32;;;;;;;2.53;1.42;;;;;;;23.04;60.37;100585.63;4881537;29;20032;-82
2022/08/06 00:13:57;;;;;;;5.65;1.45;;;;;;;23.03;60.65;100582.03;4897920;29;20433;-82
2022/08/06 00:16:23;;;;;;;5.50;1.20;;;;;;;23.07;60.72;100591.69;4898217;29;20024;-82
2022/08/06 00:18:48;;;;;;;3.45;1.17;;;;;;;23.02;61.37;100588.44;4899175;29;20176;-82
2022/08/06 00:21:14;;;;;;;4.90;1.42;;;;;;;22.83;60.68;100570.94;4898232;29;20103;-82
2022/08/06 00:23:39;;;;;;;3.75;1.42;;;;;;;23.02;61.54;100593.00;4882157;29;20036;-83
2022/08/06 00:26:05;;;;;;;4.15;1.52;;;;;;;22.95;60.99;100602.56;4881754;29;20025;-83
2022/08/06 00:28:30;;;;;;;3.00;1.33;;;;;;;22.93;61.49;100609.97;4898746;29;20132;-82
2022/08/06 00:30:55;;;;;;;2.47;1.08;;;;;;;22.80;61.46;100588.28;4897800;29;20028;-82
2022/08/06 00:33:21;;;;;;;2.60;1.85;;;;;;;22.86;61.15;100604.13;4881553;29;20411;-83
2022/08/06 00:35:46;;;;;;;3.15;1.33;;;;;;;22.73;61.77;100581.63;4897991;29;20025;-83
2022/08/06 00:38:12;;;;;;;2.90;1.33;;;;;;;22.84;61.35;100597.97;4897298;29;20037;-82
2022/08/06 00:40:38;;;;;;;3.33;1.40;;;;;;;22.72;61.57;100596.13;4896533;29;20513;-82
2022/08/06 00:43:04;;;;;;;1.77;1.00;;;;;;;22.63;61.51;100579.69;4897968;29;20036;-82
2022/08/06 00:45:31;;;;;;;3.55;1.15;;;;;;;22.60;61.75;100583.47;4879748;29;20040;-82
2022/08/06 00:47:57;;;;;;;4.63;1.30;;;;;;;22.70;61.59;100599.94;4880416;29;20028;-82
2022/08/06 00:50:22;;;;;;;2.42;1.25;;;;;;;22.65;61.71;100596.72;4897403;29;20048;-82
2022/08/06 00:52:47;;;;;;;3.00;1.98;;;;;;;22.53;61.28;100589.47;4880943;29;20741;-83
2022/08/06 00:55:13;;;;;;;2.40;1.38;;;;;;;22.59;61.95;100600.72;4880913;29;20032;-82
2022/08/06 00:57:39;;;;;;;4.75;1.38;;;;;;;22.52;61.65;100609.41;4897838;29;20063;-83
2022/08/06 01:00:06;;;;;;;3.13;1.30;;;;;;;22.45;61.56;100603.56;4880575;29;20028;-83
2022/08/06 01:02:32;;;;;;;2.33;1.25;;;;;;;22.37;61.87;100595.09;4898321;29;20036;-83
2022/08/06 01:04:57;;;;;;;2.60;1.23;;;;;;;22.37;61.89;100603.22;4880504;29;20043;-82
2022/08/06 01:07:23;;;;;;;3.42;1.10;;;;;;;22.30;61.54;100592.91;4897567;29;20024;-83
2022/08/06 01:09:49;;;;;;;2.50;1.17;;;;;;;22.31;61.27;100592.81;4880120;29;20096;-82
2022/08/06 01:12:15;;;;;;;2.63;1.45;;;;;;;22.30;61.32;100598.34;4897166;29;20067;-82
2022/08/06 01:14:41;;;;;;;2.50;1.40;;;;;;;22.35;60.77;100607.91;4881416;29;20024;-82
2022/08/06 01:17:26;;;;;;;3.28;1.38;;;;;;;22.41;61.43;100623.72;4880215;29;20365;-82
2022/08/06 01:19:56;;;;;;;4.35;1.20;;;;;;;22.35;61.30;100618.75;4879792;29;20036;-82
2022/08/06 01:22:40;;;;;;;3.67;1.35;;;;;;;22.39;60.90;100624.81;4897221;29;20043;-82
2022/08/06 01:25:42;;;;;;;2.65;1.45;;;;;;;22.33;61.42;100626.09;4897265;29;20107;-83
2022/08/06 01:28:19;;;;;;;2.38;1.30;;;;;;;22.02;61.80;100588.59;4897254;29;20028;-81
2022/08/06 01:30:49;;;;;;;3.13;1.38;;;;;;;22.15;61.89;100616.56;4896596;29;20115;-82
2022/08/06 01:33:23;;;;;;;2.75;1.35;;;;;;;22.20;61.92;100617.13;4897716;29;20035;-82
2022/08/06 01:35:52;;;;;;;2.63;1.30;;;;;;;22.24;61.83;100634.03;4897437;29;20041;-83
2022/08/06 01:38:26;;;;;;;2.55;1.20;;;;;;;22.13;62.31;100629.34;4897409;29;20021;-82
2022/08/06 01:40:54;;;;;;;2.95;1.30;;;;;;;22.07;62.20;100613.53;4897589;29;20047;-83
2022/08/06 01:43:22;;;;;;;3.55;1.40;;;;;;;21.99;61.91;100615.91;4897773;29;20056;-83
2022/08/06 01:45:51;;;;;;;1.90;1.38;;;;;;;21.95;62.33;100626.09;4880021;29;20029;-82
2022/08/06 01:48:22;;;;;;;4.00;1.50;;;;;;;21.86;62.84;100623.16;4896942;29;20044;-82
2022/08/06 01:50:50;;;;;;;1.92;1.30;;;;;;;21.79;62.58;100609.19;4879699;29;20473;-82
2022/08/06 01:53:21;;;;;;;2.10;1.20;;;;;;;21.81;62.41;100625.31;4880321;29;20052;-82
2022/08/06 01:55:51;;;;;;;2.15;1.33;;;;;;;21.89;63.03;100648.16;4897309;29;20036;-82
2022/08/06 01:58:20;;;;;;;5.03;1.50;;;;;;;21.87;62.58;100644.72;4895837;29;20036;-82
2022/08/06 02:00:48;;;;;;;3.15;1.40;;;;;;;21.83;62.60;100645.03;4879299;29;20040;-82
2022/08/06 02:03:29;;;;;;;1.55;1.30;;;;;;;21.75;63.58;100637.41;4879286;29;20096;-82
2022/08/06 02:05:57;;;;;;;2.75;1.10;;;;;;;21.78;62.96;100644.47;4879542;29;20070;-83
2022/08/06 02:08:27;;;;;;;3.20;1.17;;;;;;;21.51;62.95;100603.00;4896224;29;20053;-82
2022/08/06 02:10:54;;;;;;;2.38;1.25;;;;;;;21.78;63.83;100655.28;4879616;29;20043;-82
2022/08/06 02:13:22;;;;;;;2.25;1.30;;;;;;;21.74;64.03;100637.50;4891114;29;20051;-82
2022/08/06 02:15:49;;;;;;;2.00;1.40;;;;;;;21.77;62.99;100637.31;4906556;29;20486;-82
2022/08/06 02:18:19;;;;;;;6.60;1.30;;;;;;;21.77;62.02;100640.03;4895989;29;20031;-82
2022/08/06 02:20:49;;;;;;;2.60;1.27;;;;;;;21.79;62.49;100629.97;4879151;29;20524;-83
2022/08/06 02:23:24;;;;;;;3.63;1.35;;;;;;;21.79;62.10;100624.56;4896300;29;20034;-82
2022/08/06 02:25:53;;;;;;;4.30;1.30;;;;;;;21.68;61.70;100619.81;4879311;29;20144;-83
2022/08/06 02:28:20;;;;;;;3.03;1.20;;;;;;;21.76;61.64;100641.00;4895945;29;20064;-82
2022/08/06 02:30:49;;;;;;;2.40;1.30;;;;;;;21.69;61.75;100618.88;4878745;29;20037;-82
2022/08/06 02:33:14;;;;;;;1.98;1.33;;;;;;;21.75;61.47;100639.22;4896377;29;20084;-83
2022/08/06 02:35:45;;;;;;;4.75;1.55;;;;;;;21.81;61.97;100647.00;4896525;29;20037;-82
2022/08/06 02:38:17;;;;;;;2.47;1.77;;;;;;;21.75;61.65;100634.69;4896065;29;20020;-83
2022/08/06 02:40:49;;;;;;;1.75;1.08;;;;;;;21.78;61.79;100645.34;4879493;29;20067;-82
2022/08/06 02:43:33;;;;;;;3.03;1.48;;;;;;;21.79;62.15;100647.09;4879318;29;20365;-83
2022/08/06 02:46:11;;;;;;;2.25;1.35;;;;;;;21.75;61.39;100650.06;4903937;29;20488;-82
2022/08/06 02:48:51;;;;;;;2.50;1.40;;;;;;;21.74;62.33;100648.34;4878137;29;20032;-82
2022/08/06 02:51:43;;;;;;;2.25;1.33;;;;;;;21.58;62.21;100636.81;4895628;29;20031;-82
2022/08/06 02:54:19;;;;;;;5.35;1.77;;;;;;;21.60;62.08;100629.44;4895570;29;20035;-83
2022/08/06 02:56:49;;;;;;;2.67;1.30;;;;;;;21.57;62.13;100624.25;4878317;29;20111;-82
2022/08/06 02:59:26;;;;;;;4.63;1.52;;;;;;;21.55;62.70;100637.00;4878010;29;20036;-82
2022/08/06 03:02:00;;;;;;;3.13;1.40;;;;;;;21.53;62.80;100639.81;4878621;29;20397;-82
2022/08/06 03:04:28;;;;;;;2.22;1.30;;;;;;;21.51;62.70;100625.53;4896430;29;20021;-82
2022/08/06 03:06:55;;;;;;;6.35;1.88;;;;;;;21.52;62.55;100637.22;4878650;29;20783;-82
2022/08/06 03:09:22;;;;;;;2.97;1.40;;;;;;;21.43;62.63;100629.75;4895947;29;20513;-82
2022/08/06 03:11:49;;;;;;;4.78;1.50;;;;;;;21.54;62.58;100651.53;4879106;29;20028;-81
2022/08/06 03:14:17;;;;;;;12.02;1.90;;;;;;;21.54;63.10;100667.78;4860847;29;20068;-82
2022/08/06 03:16:44;;;;;;;3.83;1.67;;;;;;;21.42;62.89;100649.63;4860979;29;20036;-82
2022/08/06 03:19:11;;;;;;;4.05;1.75;;;;;;;21.45;62.89;100657.59;4860991;29;20033;-81
2022/08/06 03:21:38;;;;;;;4.55;1.50;;;;;;;21.40;64.04;100659.72;4877518;29;20765;-82
2022/08/06 03:24:06;;;;;;;2.92;1.27;;;;;;;21.32;64.01;100662.03;4863741;29;20029;-83
2022/08/06 03:26:34;;;;;;;3.53;1.42;;;;;;;21.21;64.27;100673.59;4864339;29;20096;-82
2022/08/06 03:29:01;;;;;;;3.63;1.35;;;;;;;21.20;64.70;100673.69;4863935;29;20037;-83
2022/08/06 03:31:27;;;;;;;4.13;1.30;;;;;;;21.17;64.77;100669.34;4864490;29;20036;-83
2022/08/06 03:33:53;;;;;;;2.35;1.30;;;;;;;21.16;64.60;100673.03;4864404;29;20037;-83
2022/08/06 03:36:22;;;;;;;3.33;1.50;;;;;;;21.19;64.72;100666.53;4873660;29;20025;-82
2022/08/06 03:39:00;;;;;;;3.53;1.50;;;;;;;21.17;65.08;100676.63;4885179;29;20123;-82
2022/08/06 03:41:28;;;;;;;2.72;1.45;;;;;;;21.10;65.15;100670.72;4900226;29;20067;-82
2022/08/06 03:43:54;;;;;;;7.32;2.25;;;;;;;20.99;65.04;100680.53;4882539;29;20485;-83
2022/08/06 03:46:26;;;;;;;8.07;2.13;;;;;;;21.05;65.71;100688.22;4898244;29;20071;-82
2022/08/06 03:48:53;;;;;;;2.42;1.67;;;;;;;21.00;66.24;100687.66;4881155;29;20096;-82
2022/08/06 03:51:23;;;;;;;4.63;1.52;;;;;;;20.93;66.49;100692.56;4898561;29;20084;-82
2022/08/06 03:53:50;;;;;;;3.55;1.60;;;;;;;20.69;67.06;100667.94;4882052;29;20051;-82
2022/08/06 03:56:23;;;;;;;3.50;1.88;;;;;;;20.75;67.08;100682.91;4898545;29;20046;-82
2022/08/06 03:58:52;;;;;;;7.95;1.95;;;;;;;20.67;66.98;100686.09;4882451;29;20489;-83
2022/08/06 04:01:22;;;;;;;4.55;1.92;;;;;;;20.45;67.64;100664.09;4899334;29;20064;-82
2022/08/06 04:03:48;;;;;;;6.28;1.50;;;;;;;20.43;68.12;100679.53;4898592;29;20036;-82
2022/08/06 04:06:16;;;;;;;4.38;1.50;;;;;;;20.51;68.39;100688.03;4898554;29;20076;-82
2022/08/06 04:08:42;;;;;;;3.67;1.80;;;;;;;20.40;68.83;100676.16;4881130;29;20044;-82
2022/08/06 04:11:10;;;;;;;3.28;1.48;;;;;;;20.27;68.57;100649.03;4897840;29;20048;-82
2022/08/06 04:13:36;;;;;;;3.33;1.73;;;;;;;20.47;69.59;100694.59;4898639;29;20541;-82
2022/08/06 04:16:02;;;;;;;3.38;1.73;;;;;;;20.39;68.90;100683.41;4881763;29;20036;-82
2022/08/06 04:18:32;;;;;;;2.80;1.55;;;;;;;20.27;69.39;100691.38;4881328;29;20060;-82
2022/08/06 04:21:01;;;;;;;3.22;1.50;;;;;;;20.23;69.60;100701.50;4898988;29;20075;-82
2022/08/06 04:23:26;;;;;;;7.20;1.98;;;;;;;20.07;70.14;100695.28;4897890;29;20076;-82
2022/08/06 04:25:56;;;;;;;2.75;1.60;;;;;;;20.05;70.09;100686.38;4881933;29;20115;-82
2022/08/06 04:28:24;;;;;;;2.58;1.67;;;;;;;20.24;69.89;100714.06;4897566;29;20063;-82
2022/08/06 04:30:50;;;;;;;4.28;1.90;;;;;;;20.01;69.91;100695.66;4898292;29;20029;-82
2022/08/06 04:33:20;;;;;;;2.53;1.50;;;;;;;20.09;70.22;100693.34;4881965;29;20039;-83
2022/08/06 04:35:46;;;;;;;2.60;1.40;;;;;;;20.25;69.76;100715.81;4898602;29;20033;-82
2022/08/06 04:38:14;;;;;;;6.55;2.08;;;;;;;20.13;69.50;100694.88;4899075;29;20496;-83
2022/08/06 04:40:40;;;;;;;3.10;1.52;;;;;;;20.13;68.82;100685.94;4898724;29;20493;-83
2022/08/06 04:43:07;;;;;;;3.95;1.70;;;;;;;20.25;68.89;100718.50;4897895;29;20358;-82
2022/08/06 04:45:35;;;;;;;2.50;1.55;;;;;;;20.26;68.87;100725.63;4889610;29;20033;-83
2022/08/06 04:48:05;;;;;;;5.25;2.45;;;;;;;20.26;68.40;100728.34;4898464;29;20024;-82
2022/08/06 04:50:31;;;;;;;3.10;1.55;;;;;;;20.13;68.22;100705.69;4898561;29;20144;-82
2022/08/06 04:53:08;;;;;;;2.95;1.80;;;;;;;20.31;67.97;100733.47;4898216;29;20473;-83
2022/08/06 04:55:34;;;;;;;2.55;1.73;;;;;;;20.20;67.80;100723.31;4898205;29;20029;-84
2022/08/06 04:58:02;;;;;;;3.60;1.63;;;;;;;20.19;66.82;100732.41;4880907;29;20048;-83
2022/08/06 05:00:28;;;;;;;3.22;1.70;;;;;;;20.32;67.55;100749.59;4898015;29;20437;-84
2022/08/06 05:02:53;;;;;;;2.97;1.40;;;;;;;20.24;66.97;100735.69;4881180;29;20129;-83
2022/08/06 05:05:21;;;;;;;3.50;1.50;;;;;;;20.13;67.33;100732.72;4880933;29;20031;-83
2022/08/06 05:07:47;;;;;;;2.47;1.48;;;;;;;20.06;67.23;100723.25;4898123;29;20100;-83
2022/08/06 05:10:13;;;;;;;3.42;1.40;;;;;;;20.07;66.63;100745.72;4897963;29;20059;-83
2022/08/06 05:12:45;;;;;;;2.90;1.60;;;;;;;19.96;67.40;100756.28;4897599;29;20028;-83
2022/08/06 05:15:32;;;;;;;3.58;1.50;;;;;;;20.08;67.81;100763.69;4898193;29;20048;-83
2022/08/06 05:18:03;;;;;;;5.05;1.67;;;;;;;20.09;67.73;100747.38;4897583;29;20063;-83
2022/08/06 05:20:33;;;;;;;3.40;1.30;;;;;;;20.13;66.99;100762.44;4897032;29;20088;-83
2022/08/06 05:23:22;;;;;;;2.70;1.33;;;;;;;20.19;66.50;100770.22;4880086;29;20028;-83
2022/08/06 05:25:49;;;;;;;2.45;1.45;;;;;;;20.04;67.05;100749.50;4880752;29;20032;-83
2022/08/06 05:28:14;;;;;;;2.92;1.63;;;;;;;20.15;66.82;100751.56;4881056;29;20028;-83
2022/08/06 05:30:46;;;;;;;2.05;1.23;;;;;;;20.12;66.81;100747.19;4897183;29;20461;-83
2022/08/06 05:33:22;;;;;;;1.98;1.30;;;;;;;20.23;65.99;100754.69;4896745;29;20056;-83
2022/08/06 05:35:47;;;;;;;5.00;1.15;;;;;;;20.35;65.97;100754.81;4896188;29;20428;-83
2022/08/06 05:38:13;;;;;;;4.65;1.50;;;;;;;20.35;65.65;100735.91;4896534;29;20029;-83
2022/08/06 05:40:39;;;;;;;2.15;1.15;;;;;;;20.65;65.97;100774.56;4896906;29;20065;-82
2022/08/06 05:43:05;;;;;;;2.95;1.25;;;;;;;20.50;64.89;100724.16;4896840;29;20489;-83
2022/08/06 05:45:31;;;;;;;2.65;1.05;;;;;;;20.71;64.27;100763.34;4888283;29;20032;-83
2022/08/06 05:48:00;;;;;;;2.92;1.45;;;;;;;20.62;63.43;100758.53;4895178;29;20028;-83
2022/08/06 05:50:34;;;;;;;2.90;1.42;;;;;;;20.79;64.02;100776.38;4895120;29;20032;-83
2022/08/06 05:53:09;;;;;;;3.00;1.63;;;;;;;20.81;62.32;100764.53;4880253;29;20438;-83
2022/08/06 05:55:42;;;;;;;3.78;1.17;;;;;;;20.71;62.29;100747.13;4896715;29;20029;-82
2022/08/06 05:58:51;;;;;;;3.20;1.17;;;;;;;21.04;62.77;100786.59;4896442;29;20064;-84
2022/08/06 06:01:17;;;;;;;4.57;1.30;;;;;;;21.09;61.22;100773.66;4879403;29;20044;-82
2022/08/06 06:03:44;;;;;;;2.60;1.17;;;;;;;21.45;60.73;100798.34;4879308;29;20040;-82
2022/08/06 06:06:11;;;;;;;2.30;1.27;;;;;;;21.38;59.85;100781.63;4895562;29;20037;-82
2022/08/06 06:08:38;;;;;;;2.97;1.13;;;;;;;21.31;59.67;100798.34;4896492;29;20128;-83
2022/08/06 06:11:07;;;;;;;3.13;1.40;;;;;;;21.26;61.48;100800.47;4879084;29;20037;-82
2022/08/06 06:13:33;;;;;;;2.25;0.95;;;;;;;21.45;62.82;100806.47;4895907;29;20029;-82
2022/08/06 06:16:12;;;;;;;2.03;1.00;;;;;;;21.53;60.89;100788.72;4892612;29;20453;-83
2022/08/06 06:18:43;;;;;;;2.22;1.05;;;;;;;21.75;59.85;100791.78;4896753;29;20024;-82
2022/08/06 06:21:12;;;;;;;4.43;1.23;;;;;;;21.79;59.11;100808.72;4884487;29;20495;-83
2022/08/06 06:23:51;;;;;;;1.48;1.10;;;;;;;21.54;59.12;100776.94;4895234;29;20175;-83
2022/08/06 06:26:42;;;;;;;3.88;1.27;;;;;;;21.79;59.15;100796.06;4896086;29;20024;-82
2022/08/06 06:29:32;;;;;;;4.50;2.58;;;;;;;21.85;59.01;100811.91;4895168;29;20382;-82
2022/08/06 06:32:07;;;;;;;3.50;1.25;;;;;;;21.84;59.28;100779.50;4895793;29;20038;-82
2022/08/06 06:34:57;;;;;;;4.38;1.23;;;;;;;22.18;58.07;100808.75;4882211;29;20048;-82
2022/08/06 06:37:52;;;;;;;7.15;1.20;;;;;;;22.38;57.76;100808.28;4859876;29;20415;-82
2022/08/06 06:40:38;;;;;;;3.45;1.20;;;;;;;22.49;56.71;100811.13;4876149;29;20045;-82
2022/08/06 06:43:17;;;;;;;2.85;1.67;;;;;;;22.58;56.05;100809.66;4887650;29;20032;-83
2022/08/06 06:46:04;;;;;;;1.73;1.30;;;;;;;22.74;56.55;100813.91;4879735;29;20025;-83
2022/08/06 06:48:51;;;;;;;3.55;1.20;;;;;;;22.89;56.61;100804.69;4878636;29;20021;-83
2022/08/06 06:51:25;;;;;;;4.00;1.23;;;;;;;22.83;55.09;100788.81;4878689;29;20029;-82
2022/08/06 06:53:53;;;;;;;2.05;1.20;;;;;;;22.72;55.53;100785.13;4879354;29;20032;-82
2022/08/06 06:56:23;;;;;;;5.00;1.30;;;;;;;23.01;55.81;100792.97;4878562;29;20064;-83
2022/08/06 06:59:13;;;;;;;4.68;1.40;;;;;;;23.16;54.44;100794.56;4881682;29;20041;-82
2022/08/06 07:01:39;;;;;;;2.60;1.20;;;;;;;23.30;54.13;100796.31;4900020;29;20092;-83
2022/08/06 07:04:09;;;;;;;6.80;1.38;;;;;;;23.55;54.00;100814.41;4899936;29;20036;-82
2022/08/06 07:06:36;;;;;;;2.13;1.13;;;;;;;23.66;53.13;100811.78;4883187;29;20420;-83
2022/08/06 07:09:02;;;;;;;3.65;1.20;;;;;;;23.78;52.58;100805.44;4899537;29;20132;-83
2022/08/06 07:11:30;;;;;;;8.52;1.60;;;;;;;24.16;53.67;100820.63;4889223;29;20032;-83
2022/08/06 07:13:58;;;;;;;4.32;1.60;;;;;;;24.41;52.17;100828.66;4902534;29;20032;-83
2022/08/06 07:16:25;;;;;;;3.05;1.50;;;;;;;24.64;50.71;100813.28;4901618;29;20811;-83
2022/08/06 07:18:53;;;;;;;3.40;1.25;;;;;;;24.75;51.04;100805.16;4901141;29;20036;-83
2022/08/06 07:21:20;;;;;;;7.07;1.42;;;;;;;24.94;50.14;100805.47;4915209;29;20052;-82
2022/08/06 07:23:51;;;;;;;6.20;1.20;;;;;;;25.49;50.25;100824.56;4902810;29;20411;-83
2022/08/06 07:26:19;;;;;;;4.72;1.58;;;;;;;25.41;47.71;100807.97;4882693;29;20123;-83
2022/08/06 07:28:46;;;;;;;3.53;1.27;;;;;;;25.57;48.65;100821.19;4883653;29;20028;-82
2022/08/06 07:31:12;;;;;;;3.88;1.23;;;;;;;25.79;48.42;100827.50;4882761;29;20028;-83
2022/08/06 07:33:41;;;;;;;2.97;1.15;;;;;;;25.89;47.64;100812.13;4900273;29;21186;-83
2022/08/06 07:36:08;;;;;;;1.83;0.95;;;;;;;26.15;47.16;100823.59;4900580;29;20024;-84
2022/08/06 07:38:36;;;;;;;3.45;1.20;;;;;;;25.84;47.00;100808.91;4898367;29;20039;-82
2022/08/06 07:41:04;;;;;;;2.40;1.00;;;;;;;26.01;48.03;100828.44;4898088;29;20095;-83
2022/08/06 07:43:38;;;;;;;2.22;1.13;;;;;;;26.14;48.17;100826.47;4887662;29;20070;-84
2022/08/06 07:46:07;;;;;;;4.32;1.80;;;;;;;26.33;46.88;100797.50;4893582;29;20097;-83
2022/08/06 07:48:37;;;;;;;2.38;1.00;;;;;;;26.75;47.15;100801.16;4881076;29;20465;-83
2022/08/06 07:51:04;;;;;;;3.25;1.17;;;;;;;27.15;45.83;100826.69;4880071;29;20057;-83
2022/08/06 07:53:31;;;;;;;3.65;1.20;;;;;;;27.21;44.22;100812.50;4892686;29;20039;-83
2022/08/06 07:55:57;;;;;;;5.78;1.30;;;;;;;27.24;44.28;100806.75;4898669;29;20420;-84
2022/08/06 07:58:23;;;;;;;2.85;1.30;;;;;;;27.37;44.61;100815.63;4899437;29;20031;-84
2022/08/06 08:00:49;;;;;;;1.92;0.88;;;;;;;27.77;44.87;100815.63;4895701;29;20041;-85
2022/08/06 08:06:19;;;;;;;3.15;1.17;;;;;;;28.11;43.32;100806.94;4881982;29;20125;-84
2022/08/06 08:08:51;;;;;;;3.42;1.10;;;;;;;28.60;42.07;100821.53;4882078;29;20048;-84
2022/08/06 08:11:18;;;;;;;1.08;0.88;;;;;;;28.36;41.13;100803.66;4882757;29;20037;-84
2022/08/06 08:13:43;;;;;;;3.45;1.08;;;;;;;28.51;40.42;100800.50;4878756;29;20068;-84
2022/08/06 08:16:13;;;;;;;2.05;1.75;;;;;;;28.16;41.07;100801.91;4898712;29;20063;-83
2022/08/06 08:18:39;;;;;;;3.20;0.95;;;;;;;28.33;41.26;100801.19;4898787;29;20135;-83
2022/08/06 08:21:06;;;;;;;2.42;1.00;;;;;;;28.60;40.06;100818.81;4898096;29;20047;-83
2022/08/06 08:23:33;;;;;;;4.07;1.00;;;;;;;28.83;39.91;100820.22;4898882;29;20028;-84
2022/08/06 08:26:01;;;;;;;3.40;1.30;;;;;;;28.70;40.62;100831.44;4899014;29;20425;-84
2022/08/06 08:28:26;;;;;;;1.60;0.93;;;;;;;28.71;40.52;100821.38;4879962;29;20024;-85
2022/08/06 08:30:52;;;;;;;2.42;0.98;;;;;;;28.74;38.91;100810.13;4875546;29;20127;-84
2022/08/06 08:33:19;;;;;;;1.90;0.90;;;;;;;28.98;37.62;100824.22;4898426;29;20055;-83
2022/08/06 08:35:45;;;;;;;3.63;1.00;;;;;;;28.81;38.77;100823.09;4893586;29;20029;-84
2022/08/06 08:38:11;;;;;;;3.47;1.05;;;;;;;28.59;39.45;100814.31;4898930;29;20060;-83
2022/08/06 08:40:36;;;;;;;2.22;1.17;;;;;;;28.75;39.56;100801.75;4896135;29;20048;-84
2022/08/06 08:43:03;;;;;;;1.65;0.90;;;;;;;29.11;38.11;100813.84;4894138;29;20036;-84
2022/08/06 08:45:29;;;;;;;3.47;0.73;;;;;;;29.42;37.94;100818.06;4882469;29;20054;-85
2022/08/06 08:47:57;;;;;;;2.67;0.90;;;;;;;29.39;38.83;100813.72;4871824;29;20671;-84
2022/08/06 08:50:27;;;;;;;2.25;0.85;;;;;;;29.85;38.15;100812.81;4898560;29;20036;-84
2022/08/06 08:53:03;;;;;;;1.20;1.08;;;;;;;30.30;38.24;100807.31;4881916;29;20544;-84
2022/08/06 08:55:29;;;;;;;3.55;0.93;;;;;;;30.05;35.90;100805.31;4898498;29;20028;-85
2022/08/06 08:57:55;;;;;;;3.13;0.75;;;;;;;30.21;36.32;100811.84;4882424;29;20064;-85
2022/08/06 09:00:21;;;;;;;1.67;0.77;;;;;;;30.58;36.14;100804.34;4898928;29;20105;-84
2022/08/06 09:02:48;;;;;;;1.77;0.90;;;;;;;30.82;34.72;100822.94;4880668;29;20168;-84
2022/08/06 09:05:14;;;;;;;2.05;0.93;;;;;;;30.77;35.06;100792.31;4881830;29;20025;-84
2022/08/06 09:07:41;;;;;;;1.38;0.80;;;;;;;31.09;36.24;100808.19;4881677;29;20032;-85
2022/08/06 09:10:09;;;;;;;1.63;0.80;;;;;;;31.19;34.64;100829.03;4898203;29;20052;-84
2022/08/06 09:12:34;;;;;;;4.30;0.90;;;;;;;31.08;35.42;100806.47;4871765;29;20033;-84
2022/08/06 09:15:00;;;;;;;1.83;1.00;;;;;;;31.14;33.80;100830.56;4879798;29;20088;-83
2022/08/06 09:17:28;;;;;;;1.45;0.82;;;;;;;30.77;35.05;100817.03;4880092;29;20124;-84
2022/08/06 09:19:53;;;;;;;2.40;0.80;;;;;;;30.40;35.38;100811.72;4879984;29;20089;-84
2022/08/06 09:22:19;;;;;;;1.73;0.95;;;;;;;30.32;34.58;100778.69;4879571;29;20029;-86
2022/08/06 09:24:44;;;;;;;3.88;0.88;;;;;;;30.64;34.94;100809.19;4863240;29;20029;-85
2022/08/06 09:27:12;;;;;;;2.05;0.80;;;;;;;30.86;33.85;100803.22;4879027;29;20699;-84
2022/08/06 09:29:58;;;;;;;1.67;0.90;;;;;;;30.69;35.07;100812.31;4877244;29;20024;-83
2022/08/06 09:32:43;;;;;;;2.83;1.73;;;;;;;30.73;34.81;100801.88;4877503;29;20033;-85
2022/08/06 09:35:25;;;;;;;2.30;0.95;;;;;;;31.17;33.51;100822.00;4861125;29;20025;-85
2022/08/06 09:38:02;;;;;;;2.35;0.82;;;;;;;31.33;33.76;100805.63;4860751;29;20478;-85
2022/08/06 09:40:28;;;;;;;1.20;0.68;;;;;;;31.69;33.17;100812.66;4877836;29;20128;-85
2022/08/06 09:42:53;;;;;;;0.90;0.70;;;;;;;31.60;33.05;100814.53;4880726;29;20137;-85
2022/08/06 09:45:21;;;;;;;4.07;0.88;;;;;;;30.52;33.67;100809.59;4891824;29;20028;-84
2022/08/06 09:48:05;;;;;;;1.00;0.70;;;;;;;30.68;34.38;100805.09;4896816;29;20032;-84
2022/08/06 09:50:44;;;;;;;4.57;0.85;;;;;;;30.96;34.18;100818.72;4897890;29;20037;-84
2022/08/06 09:53:15;;;;;;;2.25;0.80;;;;;;;31.29;33.80;100804.19;4897609;29;20369;-84
2022/08/06 09:55:41;;;;;;;2.00;0.80;;;;;;;31.43;34.08;100814.63;4881188;29;20105;-85
2022/08/06 09:58:07;;;;;;;1.02;0.75;;;;;;;31.79;33.03;100813.41;4880406;29;20016;-84
2022/08/06 10:00:35;;;;;;;3.42;0.85;;;;;;;32.11;31.77;100824.53;4897163;29;20032;-85
2022/08/06 10:03:03;;;;;;;2.45;0.88;;;;;;;32.12;31.80;100820.78;4877305;29;20033;-85
2022/08/06 10:05:30;;;;;;;1.58;0.82;;;;;;;32.27;32.80;100813.59;4869390;29;20045;-84
2022/08/06 10:08:14;;;;;;;8.70;1.02;;;;;;;32.67;31.72;100824.66;4879047;29;20071;-86
2022/08/06 10:10:45;;;;;;;4.13;0.70;;;;;;;32.60;31.23;100818.13;4880717;29;20048;-85
2022/08/06 10:13:20;;;;;;;3.78;0.80;;;;;;;32.66;31.67;100825.69;4890289;29;20024;-84
2022/08/06 10:15:48;;;;;;;2.10;0.93;;;;;;;32.43;31.43;100813.63;4885836;29;20117;-85
2022/08/06 10:18:42;;;;;;;2.50;0.60;;;;;;;32.26;30.96;100817.34;4861884;29;20029;-84
2022/08/06 10:21:15;;;;;;;1.63;0.80;;;;;;;31.93;31.19;100812.78;4880570;29;20172;-85
2022/08/06 10:23:44;;;;;;;6.07;1.00;;;;;;;32.29;31.09;100816.16;4881425;29;20028;-84
2022/08/06 10:26:12;;;;;;;1.48;0.60;;;;;;;32.65;31.07;100823.13;4896004;29;20043;-84
2022/08/06 10:28:43;;;;;;;1.13;0.70;;;;;;;32.64;31.74;100821.38;4879819;29;20028;-84
2022/08/06 10:31:12;;;;;;;1.90;0.60;;;;;;;32.88;31.02;100808.44;4877811;29;20039;-84
2022/08/06 10:33:51;;;;;;;0.80;0.65;;;;;;;32.44;31.38;100787.78;4877759;29;20577;-83
2022/08/06 10:36:20;;;;;;;0.90;0.70;;;;;;;32.64;30.92;100791.06;4870788;29;20052;-81
2022/08/06 10:38:50;;;;;;;0.73;0.55;;;;;;;32.87;30.97;100800.34;4895112;29;20441;-83
2022/08/06 10:41:16;;;;;;;2.70;0.90;;;;;;;33.09;31.31;100795.03;4896579;29;20635;-84
2022/08/06 10:43:42;;;;;;;2.92;0.73;;;;;;;33.20;30.90;100786.38;4878100;29;20032;-84
2022/08/06 10:46:10;;;;;;;2.25;0.65;;;;;;;33.24;30.64;100789.66;4880089;29;20028;-83
2022/08/06 10:48:38;;;;;;;4.15;0.80;;;;;;;33.49;30.23;100801.50;4896099;29;20024;-82
2022/08/06 10:51:10;;;;;;;2.00;0.70;;;;;;;33.62;29.97;100791.63;4899790;29;20510;-84
2022/08/06 10:53:39;;;;;;;2.40;1.15;;;;;;;33.32;29.05;100776.69;4891289;29;20036;-84
2022/08/06 10:56:07;;;;;;;1.40;0.68;;;;;;;33.25;31.00;100783.94;4880676;29;20025;-85
2022/08/06 10:58:34;;;;;;;2.72;0.70;;;;;;;33.39;29.71;100783.19;4896828;29;20346;-85
2022/08/06 11:01:04;;;;;;;3.47;0.70;;;;;;;33.57;29.55;100762.84;4880292;29;20032;-83
2022/08/06 11:04:12;;;;;;;5.80;0.98;;;;;;;33.75;30.27;100769.81;4881248;29;20028;-84
2022/08/06 11:07:05;;;;;;;1.65;0.70;;;;;;;33.77;29.92;100788.97;4886117;29;20029;-84
2022/08/06 11:10:08;;;;;;;2.35;0.60;;;;;;;33.87;29.98;100786.84;4879673;29;20055;-84
2022/08/06 11:13:10;;;;;;;2.05;0.90;;;;;;;34.16;29.02;100784.28;4891304;29;20119;-84
2022/08/06 11:15:37;;;;;;;2.42;1.30;;;;;;;34.18;30.11;100783.06;4897325;29;20025;-83
2022/08/06 11:18:05;;;;;;;2.88;0.80;;;;;;;33.48;29.26;100773.03;4880408;29;20029;-86
2022/08/06 11:20:41;;;;;;;2.58;0.80;;;;;;;33.28;30.32;100778.06;4896413;29;20567;-85
2022/08/06 11:23:27;;;;;;;5.10;1.25;;;;;;;33.61;29.70;100755.94;4896626;29;20060;-85
2022/08/06 11:25:59;;;;;;;1.77;0.70;;;;;;;33.71;28.97;100767.63;4861384;29;20040;-84
2022/08/06 11:28:30;;;;;;;0.95;0.60;;;;;;;33.62;28.73;100769.53;4877304;29;20504;-82
2022/08/06 11:30:59;;;;;;;1.63;0.70;;;;;;;33.72;30.18;100769.31;4880203;29;20029;-81
2022/08/06 11:33:34;;;;;;;2.50;0.88;;;;;;;33.74;27.64;100764.47;4878892;29;20029;-82
2022/08/06 11:36:03;;;;;;;2.47;0.68;;;;;;;33.49;29.07;100735.28;4875778;29;20036;-83
2022/08/06 11:38:47;;;;;;;1.95;0.45;;;;;;;34.05;29.09;100759.84;4875315;29;20026;-84
2022/08/06 11:41:21;;;;;;;1.92;0.60;;;;;;;33.93;28.54;100741.97;4873782;29;20036;-83
2022/08/06 11:43:53;;;;;;;1.67;0.60;;;;;;;33.76;27.96;100759.63;4886189;29;20029;-84